sensor_id;sensor_type;location;lat;lon;timestamp;P1;durP1;ratioP1;P2;durP2;ratioP2
14320;SDS011;7244;47.364;8.464;2023-12-07T00:01:02;3;;;2;;
14320;SDS011;7244;47.364;8.464;2023-12-07T00:16:01;2;;;2;;
14320;SDS011;7244;47.364;8.464;2023-12-07T00:32:02;2;;;2;;
14320;SDS011;7244;47.364;8.464;2023-12-07T00:48:02;3;;;3;;
14320;SDS011;7244;47.364;8.464;2023-12-07T01:04:01;3;;;3;;
14320;SDS011;7244;47.364;8.464;2023-12-07T01:19:01;2;;;2;;
14320;SDS011;7244;47.364;8.464;2023-12-07T01:35:02;3;;;2;;
14320;SDS011;7244;47.364;8.464;2023-12-07T01:51:02;3;;;3;;
14320;SDS011;7244;47.364;8.464;2023-12-07T02:06:02;4;;;3;;
14320;SDS011;7244;47.364;8.464;2023-12-07T02:22:02;4;;;3;;
14320;SDS011;7244;47.364;8.464;2023-12-07T02:38:02;5;;;3;;
14320;SDS011;7244;47.364;8.464;2023-12-07T02:54:01;4;;;3;;
14320;SDS011;7244;47.364;8.464;2023-12-07T03:09:02;6;;;5;;
14320;SDS011;7244;47.364;8.464;2023-12-07T03:25:02;43;;;23;;
14320;SDS011;7244;47.364;8.464;2023-12-07T03:41:02;13;;;10;;
14320;SDS011;7244;47.364;8.464;2023-12-07T03:57:01;10;;;8;;
14320;SDS011;7244;47.364;8.464;2023-12-07T04:12:02;9;;;8;;
14320;SDS011;7244;47.364;8.464;2023-12-07T04:28:02;8;;;7;;
14320;SDS011;7244;47.364;8.464;2023-12-07T04:44:01;12;;;11;;
14320;SDS011;7244;47.364;8.464;2023-12-07T04:59:02;10;;;9;;
14320;SDS011;7244;47.364;8.464;2023-12-07T05:15:01;9;;;8;;
14320;SDS011;7244;47.364;8.464;2023-12-07T05:31:01;8;;;7;;
14320;SDS011;7244;47.364;8.464;2023-12-07T05:47:02;8;;;7;;
14320;SDS011;7244;47.364;8.464;2023-12-07T06:02:02;8;;;7;;
14320;SDS011;7244;47.364;8.464;2023-12-07T06:18:02;8;;;7;;
14320;SDS011;7244;47.364;8.464;2023-12-07T06:34:02;11;;;9;;
14320;SDS011;7244;47.364;8.464;2023-12-07T06:50:01;54;;;13;;
14320;SDS011;7244;47.364;8.464;2023-12-07T07:05:02;31;;;11;;
14320;SDS011;7244;47.364;8.464;2023-12-07T07:21:02;11;;;10;;
14320;SDS011;7244;47.364;8.464;2023-12-07T07:37:01;41;;;11;;
14320;SDS011;7244;47.364;8.464;2023-12-07T07:52:01;18;;;12;;
14320;SDS011;7244;47.364;8.464;2023-12-07T08:08:01;47;;;12;;
14320;SDS011;7244;47.364;8.464;2023-12-07T08:24:02;34;;;11;;
14320;SDS011;7244;47.364;8.464;2023-12-07T08:40:01;218;;;14;;
14320;SDS011;7244;47.364;8.464;2023-12-07T08:55:02;14;;;10;;
14320;SDS011;7244;47.364;8.464;2023-12-07T09:11:02;19;;;12;;
14320;SDS011;7244;47.364;8.464;2023-12-07T09:27:02;13;;;11;;
14320;SDS011;7244;47.364;8.464;2023-12-07T09:43:02;16;;;12;;
14320;SDS011;7244;47.364;8.464;2023-12-07T09:58:03;21;;;15;;
14320;SDS011;7244;47.364;8.464;2023-12-07T10:14:02;19;;;14;;
14320;SDS011;7244;47.364;8.464;2023-12-07T10:30:02;20;;;15;;
14320;SDS011;7244;47.364;8.464;2023-12-07T10:45:03;18;;;14;;
14320;SDS011;7244;47.364;8.464;2023-12-07T11:01:02;18;;;13;;
14320;SDS011;7244;47.364;8.464;2023-12-07T11:17:02;16;;;13;;
14320;SDS011;7244;47.364;8.464;2023-12-07T11:33:03;17;;;14;;
14320;SDS011;7244;47.364;8.464;2023-12-07T11:48:10;15;;;13;;
14320;SDS011;7244;47.364;8.464;2023-12-07T12:04:02;14;;;13;;
14320;SDS011;7244;47.364;8.464;2023-12-07T12:20:03;14;;;11;;
14320;SDS011;7244;47.364;8.464;2023-12-07T12:35:02;10;;;9;;
14320;SDS011;7244;47.364;8.464;2023-12-07T12:51:12;12;;;11;;
14320;SDS011;7244;47.364;8.464;2023-12-07T13:07:01;12;;;10;;
14320;SDS011;7244;47.364;8.464;2023-12-07T13:23:02;14;;;12;;
14320;SDS011;7244;47.364;8.464;2023-12-07T13:38:02;12;;;11;;
14320;SDS011;7244;47.364;8.464;2023-12-07T13:54:02;12;;;10;;
14320;SDS011;7244;47.364;8.464;2023-12-07T14:10:01;11;;;10;;
14320;SDS011;7244;47.364;8.464;2023-12-07T14:26:01;12;;;10;;
14320;SDS011;7244;47.364;8.464;2023-12-07T14:41:02;10;;;9;;
14320;SDS011;7244;47.364;8.464;2023-12-07T14:57:02;11;;;10;;
14320;SDS011;7244;47.364;8.464;2023-12-07T15:13:02;13;;;11;;
14320;SDS011;7244;47.364;8.464;2023-12-07T15:28:05;14;;;11;;
14320;SDS011;7244;47.364;8.464;2023-12-07T15:44:01;14;;;12;;
14320;SDS011;7244;47.364;8.464;2023-12-07T16:00:02;14;;;13;;
14320;SDS011;7244;47.364;8.464;2023-12-07T16:16:02;17;;;13;;
14320;SDS011;7244;47.364;8.464;2023-12-07T16:31:01;12;;;11;;
14320;SDS011;7244;47.364;8.464;2023-12-07T16:47:02;13;;;11;;
14320;SDS011;7244;47.364;8.464;2023-12-07T17:03:01;13;;;11;;
14320;SDS011;7244;47.364;8.464;2023-12-07T17:19:01;16;;;12;;
14320;SDS011;7244;47.364;8.464;2023-12-07T17:34:02;14;;;12;;
14320;SDS011;7244;47.364;8.464;2023-12-07T17:50:01;19;;;16;;
14320;SDS011;7244;47.364;8.464;2023-12-07T18:06:06;20;;;16;;
14320;SDS011;7244;47.364;8.464;2023-12-07T18:21:02;17;;;15;;
14320;SDS011;7244;47.364;8.464;2023-12-07T18:37:02;20;;;16;;
14320;SDS011;7244;47.364;8.464;2023-12-07T18:53:02;25;;;19;;
14320;SDS011;7244;47.364;8.464;2023-12-07T19:09:02;25;;;19;;
14320;SDS011;7244;47.364;8.464;2023-12-07T19:24:01;22;;;18;;
14320;SDS011;7244;47.364;8.464;2023-12-07T19:40:02;21;;;18;;
14320;SDS011;7244;47.364;8.464;2023-12-07T19:56:02;18;;;16;;
14320;SDS011;7244;47.364;8.464;2023-12-07T20:12:02;24;;;19;;
14320;SDS011;7244;47.364;8.464;2023-12-07T20:27:02;26;;;20;;
14320;SDS011;7244;47.364;8.464;2023-12-07T20:43:02;26;;;19;;
14320;SDS011;7244;47.364;8.464;2023-12-07T20:59:01;23;;;17;;
14320;SDS011;7244;47.364;8.464;2023-12-07T21:14:01;24;;;19;;
14320;SDS011;7244;47.364;8.464;2023-12-07T21:30:02;20;;;18;;
14320;SDS011;7244;47.364;8.464;2023-12-07T21:46:01;22;;;18;;
14320;SDS011;7244;47.364;8.464;2023-12-07T22:02:01;20;;;16;;
14320;SDS011;7244;47.364;8.464;2023-12-07T22:17:02;21;;;17;;
14320;SDS011;7244;47.364;8.464;2023-12-07T22:33:02;18;;;15;;
14320;SDS011;7244;47.364;8.464;2023-12-07T22:49:02;19;;;16;;
14320;SDS011;7244;47.364;8.464;2023-12-07T23:05:01;18;;;15;;
14320;SDS011;7244;47.364;8.464;2023-12-07T23:20:02;18;;;15;;
14320;SDS011;7244;47.364;8.464;2023-12-07T23:36:02;18;;;16;;
14320;SDS011;7244;47.364;8.464;2023-12-07T23:52:01;23;;;18;;
